createdAt,value
2022-11-16T00:01:29.934Z,99990.00
2022-11-16T00:04:01.914Z,99991.75
2022-11-16T00:06:30.993Z,99993.47
2022-11-16T00:09:19.412Z,99989.97
2022-11-16T00:11:50.262Z,99990.00
2022-11-16T00:14:18.891Z,99979.53
2022-11-16T00:16:47.578Z,99983.97
2022-11-16T00:19:17.728Z,99970.84
2022-11-16T00:21:46.430Z,99971.72
2022-11-16T00:24:16.760Z,99969.97
2022-11-16T00:26:46.259Z,99969.97
2022-11-16T00:29:16.885Z,99972.59
2022-11-16T00:31:46.734Z,99968.28
2022-11-16T00:34:17.476Z,99966.50
2022-11-16T00:36:46.683Z,99968.28
2022-11-16T00:39:16.701Z,99968.28
2022-11-16T00:41:48.254Z,99967.41
2022-11-16T00:44:17.965Z,99976.13
2022-11-16T00:46:47.015Z,99983.09
2022-11-16T00:49:17.188Z,99979.59
2022-11-16T00:51:46.056Z,99987.47
2022-11-16T00:54:14.651Z,99986.59
2022-11-16T00:56:43.318Z,99988.34
2022-11-16T00:59:12.135Z,99983.09
2022-11-16T01:01:40.971Z,99979.59
2022-11-16T01:04:09.696Z,99981.34
2022-11-16T01:06:39.674Z,99989.22
2022-11-16T01:09:08.296Z,99985.72
2022-11-16T01:11:54.134Z,99982.25
2022-11-16T01:14:22.741Z,99978.72
2022-11-16T01:16:51.921Z,99973.53
2022-11-16T01:19:22.531Z,99975.31
2022-11-16T01:21:52.587Z,99969.19
2022-11-16T01:24:21.197Z,99965.72
2022-11-16T01:26:49.876Z,99959.56
2022-11-16T01:29:19.119Z,99962.16
2022-11-16T01:31:54.950Z,99962.13
2022-11-16T01:34:24.328Z,99960.38
2022-11-16T01:36:56.775Z,99953.41
2022-11-16T01:39:27.959Z,99954.25
2022-11-16T01:42:01.652Z,99959.47
2022-11-16T01:44:56.420Z,99956.91
2022-11-16T01:47:25.238Z,99954.31
2022-11-16T01:49:58.805Z,99941.22
2022-11-16T01:52:36.162Z,99914.22
2022-11-16T01:55:06.198Z,99939.44
2022-11-16T01:57:48.962Z,99853.31
2022-11-16T02:00:19.148Z,99941.16
2022-11-16T02:03:00.692Z,99951.56
2022-11-16T02:06:13.198Z,99944.63
2022-11-16T02:09:17.568Z,99939.34
2022-11-16T02:12:12.763Z,99937.56
2022-11-16T02:15:00.256Z,99934.06
2022-11-16T02:17:38.513Z,99939.25
2022-11-16T02:20:48.519Z,99933.03
2022-11-16T02:24:04.562Z,99838.25
2022-11-16T02:26:57.543Z,99923.38
2022-11-16T02:29:35.145Z,99927.75
2022-11-16T02:32:09.213Z,99936.41
2022-11-16T02:34:55.692Z,99930.31
2022-11-16T02:37:28.155Z,99928.56
2022-11-16T02:40:01.677Z,99921.50
2022-11-16T02:42:36.145Z,99842.31
2022-11-16T02:45:13.653Z,99913.56
2022-11-16T02:47:44.865Z,99910.94
2022-11-16T02:50:18.015Z,99910.88
2022-11-16T02:52:46.902Z,99901.19
2022-11-16T02:55:15.848Z,99902.91
2022-11-16T02:57:52.845Z,99891.47
2022-11-16T03:00:30.960Z,99895.78
2022-11-16T03:03:16.596Z,99820.31
2022-11-16T03:05:50.928Z,99884.56
2022-11-16T03:08:26.423Z,99885.44
2022-11-16T03:11:17.920Z,99887.22
2022-11-16T03:13:47.991Z,99877.56
2022-11-16T03:16:24.525Z,99867.97
2022-11-16T03:18:56.752Z,99786.22
2022-11-16T03:21:35.877Z,99857.38
2022-11-16T03:24:04.864Z,99858.19
2022-11-16T03:26:43.457Z,99830.38
2022-11-16T03:29:22.831Z,99864.31
2022-11-16T03:32:01.050Z,99866.06
2022-11-16T03:34:34.291Z,99866.94
2022-11-16T03:37:04.091Z,99870.41
2022-11-16T03:39:38.157Z,99872.09
2022-11-16T03:42:14.975Z,99867.69
2022-11-16T03:44:47.261Z,99866.00
2022-11-16T03:47:17.641Z,99866.00
2022-11-16T03:49:52.837Z,99873.78
2022-11-16T03:52:22.303Z,99874.72
2022-11-16T03:54:52.405Z,99872.91
2022-11-16T03:57:21.088Z,99878.19
2022-11-16T03:59:56.152Z,99873.69
2022-11-16T04:02:26.183Z,99876.25
2022-11-16T04:05:15.220Z,99875.41
2022-11-16T04:08:02.886Z,99867.59
2022-11-16T04:10:50.305Z,99863.22
2022-11-16T04:13:43.425Z,99862.28
2022-11-16T04:16:30.116Z,99863.91
2022-11-16T04:19:18.898Z,99863.88
2022-11-16T04:22:08.914Z,99854.28
2022-11-16T04:24:41.476Z,99846.41
2022-11-16T04:27:31.048Z,99843.81
2022-11-16T04:30:02.408Z,99838.53
2022-11-16T04:32:51.925Z,99835.88
2022-11-16T04:35:41.672Z,99829.78
2022-11-16T04:38:11.694Z,99823.75
2022-11-16T04:40:40.421Z,99824.63
2022-11-16T04:43:10.994Z,99809.69
2022-11-16T04:45:59.764Z,99813.16
2022-11-16T04:48:36.016Z,99814.84
2022-11-16T04:51:07.438Z,99820.09
2022-11-16T04:53:36.771Z,99816.66
2022-11-16T04:56:19.245Z,99806.97
2022-11-16T04:58:48.999Z,99798.28
2022-11-16T05:01:18.203Z,99792.09
2022-11-16T05:03:46.922Z,99793.88
2022-11-16T05:06:17.259Z,99794.69
2022-11-16T05:08:46.017Z,99798.06
2022-11-16T05:11:14.674Z,99791.94
2022-11-16T05:13:43.584Z,99799.09
2022-11-16T05:16:12.274Z,99787.69
2022-11-16T05:18:42.126Z,99786.84
2022-11-16T05:21:10.463Z,99781.69
2022-11-16T05:23:59.050Z,99782.53
2022-11-16T05:26:32.119Z,99783.41
2022-11-16T05:29:01.397Z,99795.69
2022-11-16T05:31:29.993Z,99802.59
2022-11-16T05:33:59.156Z,99796.41
2022-11-16T05:36:27.801Z,99796.34
2022-11-16T05:38:58.781Z,99798.94
2022-11-16T05:41:30.842Z,99795.41
2022-11-16T05:44:00.603Z,99802.44
2022-11-16T05:46:29.553Z,99811.09
2022-11-16T05:49:01.158Z,99806.75
2022-11-16T05:51:29.929Z,99816.22
2022-11-16T05:54:02.471Z,99821.41
2022-11-16T05:56:32.139Z,99814.47
2022-11-16T05:59:01.383Z,99818.75
2022-11-16T06:01:30.317Z,99819.50
2022-11-16T06:04:01.710Z,99816.81
2022-11-16T06:06:31.606Z,99824.59
2022-11-16T06:09:01.758Z,99815.88
2022-11-16T06:11:36.047Z,99820.25
2022-11-16T06:14:06.949Z,99828.09
2022-11-16T06:16:37.018Z,99822.72
2022-11-16T06:19:09.189Z,99820.09
2022-11-16T06:21:38.460Z,99821.81
2022-11-16T06:24:13.978Z,99815.75
2022-11-16T06:26:44.106Z,99815.69
2022-11-16T06:29:12.876Z,99813.00
2022-11-16T06:31:41.585Z,99818.34
2022-11-16T06:34:10.390Z,99816.63
2022-11-16T06:36:38.998Z,99814.81
2022-11-16T06:39:07.965Z,99819.09
2022-11-16T06:41:41.667Z,99811.16
2022-11-16T06:44:12.926Z,99812.88
2022-11-16T06:46:49.428Z,99812.09
2022-11-16T06:49:18.078Z,99806.94
2022-11-16T06:51:48.046Z,99800.94
2022-11-16T06:54:17.111Z,99806.97
2022-11-16T06:56:47.105Z,99801.66
2022-11-16T06:59:15.757Z,99808.56
2022-11-16T07:01:45.272Z,99807.56
2022-11-16T07:04:16.541Z,99814.66
2022-11-16T07:06:51.662Z,99811.09
2022-11-16T07:09:20.660Z,99813.72
2022-11-16T07:11:51.233Z,99817.22
2022-11-16T07:14:21.600Z,99813.69
2022-11-16T07:16:54.876Z,99821.53
2022-11-16T07:19:26.662Z,99828.44
2022-11-16T07:21:55.523Z,99825.81
2022-11-16T07:24:25.130Z,99821.31
2022-11-16T07:26:55.265Z,99831.84
2022-11-16T07:29:27.540Z,99834.59
2022-11-16T07:32:25.189Z,99834.53
2022-11-16T07:35:26.151Z,99829.16
2022-11-16T07:37:54.977Z,99839.56
2022-11-16T07:40:24.187Z,99829.06
2022-11-16T07:42:54.386Z,99834.16
2022-11-16T07:46:21.330Z,99837.78
2022-11-16T07:48:47.637Z,99842.06
2022-11-16T07:51:20.601Z,99840.22
2022-11-16T07:54:02.341Z,99841.13
2022-11-16T07:56:30.942Z,99841.91
2022-11-16T07:59:01.516Z,99837.44
2022-11-16T08:01:34.397Z,99837.53
2022-11-16T08:04:03.240Z,99839.44
2022-11-16T08:06:32.912Z,99835.91
2022-11-16T08:09:02.129Z,99838.63
2022-11-16T08:11:32.611Z,99836.97
2022-11-16T08:14:02.733Z,99833.28
2022-11-16T08:16:33.303Z,99833.16
2022-11-16T08:19:10.317Z,99832.19
2022-11-16T08:21:39.616Z,99823.78
2022-11-16T08:24:09.806Z,99822.13
2022-11-16T08:26:42.465Z,99825.50
2022-11-16T08:29:15.998Z,99815.94
2022-11-16T08:31:50.555Z,99819.53
2022-11-16T08:34:21.825Z,99819.56
2022-11-16T08:36:58.215Z,99815.00
2022-11-16T08:39:37.343Z,99810.50
2022-11-16T08:42:06.192Z,99811.50
2022-11-16T08:44:36.186Z,99813.19
2022-11-16T08:47:09.640Z,99819.38
2022-11-16T08:49:49.216Z,99826.25
2022-11-16T08:52:19.418Z,99820.09
2022-11-16T08:54:48.680Z,99815.00
2022-11-16T08:57:18.502Z,99819.56
2022-11-16T08:59:53.435Z,99825.56
2022-11-16T09:02:25.589Z,99812.63
2022-11-16T09:04:54.776Z,99819.44
2022-11-16T09:07:23.571Z,99801.91
2022-11-16T09:09:52.338Z,99806.53
2022-11-16T09:12:21.017Z,99809.03
2022-11-16T09:14:49.864Z,99802.06
2022-11-16T09:17:23.122Z,99807.22
2022-11-16T09:19:52.055Z,99817.50
2022-11-16T09:22:20.889Z,99813.06
2022-11-16T09:24:50.057Z,99798.91
2022-11-16T09:27:19.018Z,99796.31
2022-11-16T09:29:47.679Z,99797.03
2022-11-16T09:32:16.330Z,99798.59
2022-11-16T09:34:46.291Z,99796.19
2022-11-16T09:37:15.386Z,99799.91
2022-11-16T09:39:43.938Z,99801.91
2022-11-16T09:42:34.211Z,99793.41
2022-11-16T09:45:07.681Z,99797.09
2022-11-16T09:47:49.195Z,99788.25
2022-11-16T09:50:48.404Z,99783.81
2022-11-16T09:53:38.579Z,99786.34
2022-11-16T09:56:19.178Z,99750.63
2022-11-16T09:58:56.957Z,99792.97
2022-11-16T10:01:30.773Z,99789.59
2022-11-16T10:04:06.558Z,99785.22
2022-11-16T10:06:48.625Z,99780.13
2022-11-16T10:09:17.618Z,99774.56
2022-11-16T10:11:57.452Z,99763.03
2022-11-16T10:14:48.569Z,99766.34
2022-11-16T10:17:26.404Z,99758.47
2022-11-16T10:19:57.649Z,99754.97
2022-11-16T10:22:42.236Z,99754.78
2022-11-16T10:25:17.697Z,99749.56
2022-11-16T10:28:11.411Z,99754.94
2022-11-16T10:30:54.099Z,99745.63
2022-11-16T10:33:26.553Z,99750.81
2022-11-16T10:35:55.978Z,99751.88
2022-11-16T10:38:30.334Z,99758.59
2022-11-16T10:41:03.806Z,99761.22
2022-11-16T10:43:34.195Z,99768.38
2022-11-16T10:46:13.814Z,99769.22
2022-11-16T10:48:50.808Z,99757.78
2022-11-16T10:51:19.626Z,99756.84
2022-11-16T10:53:49.577Z,99755.81
2022-11-16T10:56:22.984Z,99760.06
2022-11-16T10:58:57.124Z,99755.78
2022-11-16T11:01:37.417Z,99753.94
2022-11-16T11:04:21.955Z,99749.44
2022-11-16T11:06:52.830Z,99743.53
2022-11-16T11:09:28.896Z,99741.91
2022-11-16T11:12:20.860Z,99737.53
2022-11-16T11:15:06.776Z,99738.34
2022-11-16T11:17:36.851Z,99741.72
2022-11-16T11:20:09.410Z,99737.38
2022-11-16T11:22:48.368Z,99725.72
2022-11-16T11:25:25.898Z,99728.78
2022-11-16T11:28:07.042Z,99635.19
2022-11-16T11:30:36.714Z,99735.66
2022-11-16T11:33:12.598Z,99728.69
2022-11-16T11:35:41.272Z,99737.84
2022-11-16T11:38:15.758Z,99734.41
2022-11-16T11:40:58.855Z,99729.44
2022-11-16T11:43:29.836Z,99729.31
2022-11-16T11:46:10.707Z,99729.25
2022-11-16T11:48:48.143Z,99731.09
2022-11-16T11:51:23.632Z,99729.19
2022-11-16T11:53:56.203Z,99729.34
2022-11-16T11:56:27.576Z,99724.00
2022-11-16T11:58:57.506Z,99724.19
2022-11-16T12:02:20.915Z,99719.25
2022-11-16T12:05:22.693Z,99720.00
2022-11-16T12:08:07.613Z,99718.16
2022-11-16T12:10:48.370Z,99713.81
2022-11-16T12:13:49.246Z,99712.03
2022-11-16T12:16:27.940Z,99714.50
2022-11-16T12:19:33.366Z,99710.16
2022-11-16T12:22:15.839Z,99709.28
2022-11-16T12:24:58.450Z,99708.63
2022-11-16T12:27:35.441Z,99707.69
2022-11-16T12:30:12.454Z,99714.63
2022-11-16T12:33:00.878Z,99716.44
2022-11-16T12:35:55.896Z,99717.94
2022-11-16T12:38:52.031Z,99721.59
2022-11-16T12:41:43.484Z,99727.13
2022-11-16T12:44:18.095Z,99719.41
2022-11-16T12:46:59.968Z,99722.03
2022-11-16T12:49:52.406Z,99720.00
2022-11-16T12:52:35.067Z,99714.06
2022-11-16T12:55:26.853Z,99714.16
2022-11-16T12:58:12.016Z,99708.84
2022-11-16T13:00:53.592Z,99717.63
2022-11-16T13:03:30.434Z,99704.53
2022-11-16T13:06:03.372Z,99709.75
2022-11-16T13:08:45.161Z,99703.09
2022-11-16T13:11:19.385Z,99705.56
2022-11-16T13:13:53.833Z,99701.22
2022-11-16T13:16:24.009Z,99697.56
2022-11-16T13:18:55.059Z,99699.31
2022-11-16T13:21:32.792Z,99702.22
2022-11-16T13:24:31.544Z,99707.53
2022-11-16T13:27:14.113Z,99700.59
2022-11-16T13:29:49.107Z,99712.81
2022-11-16T13:32:24.102Z,99710.31
2022-11-16T13:34:54.696Z,99713.81
2022-11-16T13:37:49.420Z,99641.66
2022-11-16T13:40:27.212Z,99713.47
2022-11-16T13:43:06.426Z,99720.72
2022-11-16T13:45:39.031Z,99714.53
2022-11-16T13:48:18.936Z,99711.94
2022-11-16T13:50:55.168Z,99709.31
2022-11-16T13:56:28.560Z,99707.56
2022-11-16T13:58:58.727Z,99701.47
2022-11-16T14:01:47.260Z,99699.69
2022-11-16T14:04:54.578Z,99686.59
2022-11-16T14:07:49.991Z,99689.16
2022-11-16T14:10:55.487Z,99688.19
2022-11-16T14:13:44.193Z,99638.75
2022-11-16T14:16:45.775Z,99685.56
2022-11-16T14:20:04.661Z,99678.53
2022-11-16T14:23:02.120Z,99682.03
2022-11-16T14:25:43.186Z,99688.94
2022-11-16T14:28:39.241Z,99688.91
2022-11-16T14:31:16.569Z,99687.25
2022-11-16T14:33:51.133Z,99679.53
2022-11-16T14:36:34.943Z,99676.94
2022-11-16T14:39:27.347Z,99683.97
2022-11-16T14:41:58.667Z,99675.16
2022-11-16T14:44:30.645Z,99682.16
2022-11-16T14:46:59.519Z,99681.41
2022-11-16T14:49:30.242Z,99679.69
2022-11-16T14:52:02.325Z,99675.22
2022-11-16T14:54:39.154Z,99683.06
2022-11-16T14:57:14.131Z,99669.09
2022-11-16T14:59:42.748Z,99668.19
2022-11-16T15:02:21.276Z,99662.94
2022-11-16T15:04:51.086Z,99659.47
2022-11-16T15:07:20.507Z,99662.88
2022-11-16T15:09:52.358Z,99660.19
2022-11-16T15:12:46.278Z,99669.91
2022-11-16T15:15:23.580Z,99666.41
2022-11-16T15:18:07.299Z,99658.66
2022-11-16T15:20:39.385Z,99668.16
2022-11-16T15:23:15.340Z,99662.06
2022-11-16T15:25:52.518Z,99662.06
2022-11-16T15:28:25.081Z,99654.97
2022-11-16T15:30:56.061Z,99652.31
2022-11-16T15:33:30.152Z,99661.16
2022-11-16T15:35:59.265Z,99661.22
2022-11-16T15:38:29.967Z,99661.16
2022-11-16T15:41:02.618Z,99662.06
2022-11-16T15:43:40.986Z,99656.94
2022-11-16T15:46:15.990Z,99661.19
2022-11-16T15:48:45.532Z,99658.69
2022-11-16T15:51:17.716Z,99662.22
2022-11-16T15:53:48.345Z,99656.97
2022-11-16T15:56:22.708Z,99665.66
2022-11-16T15:58:52.155Z,99661.31
2022-11-16T16:01:22.670Z,99659.47
2022-11-16T16:03:57.764Z,99660.31
2022-11-16T16:06:48.410Z,99666.56
2022-11-16T16:09:26.740Z,99658.69
2022-11-16T16:12:16.594Z,99664.75
2022-11-16T16:14:45.827Z,99661.31
2022-11-16T16:17:25.401Z,99661.31
2022-11-16T16:19:59.403Z,99665.72
2022-11-16T16:22:30.702Z,99668.34
2022-11-16T16:25:01.475Z,99669.16
2022-11-16T16:27:41.323Z,99659.69
2022-11-16T16:30:14.515Z,99657.84
2022-11-16T16:32:43.249Z,99658.75
2022-11-16T16:35:19.124Z,99670.13
2022-11-16T16:37:50.901Z,99665.03
2022-11-16T16:40:21.822Z,99670.25
2022-11-16T16:42:53.275Z,99665.03
2022-11-16T16:45:27.161Z,99666.75
2022-11-16T16:47:56.076Z,99660.63
2022-11-16T16:50:25.026Z,99663.28
2022-11-16T16:52:54.908Z,99663.22
2022-11-16T16:55:23.502Z,99666.59
2022-11-16T16:57:53.991Z,99670.19
2022-11-16T17:00:22.786Z,99659.63
2022-11-16T17:02:51.606Z,99666.75
2022-11-16T17:05:20.244Z,99661.38
2022-11-16T17:07:48.842Z,99659.75
2022-11-16T17:10:18.302Z,99648.34
2022-11-16T17:12:47.163Z,99659.75
2022-11-16T17:15:19.518Z,99659.69
2022-11-16T17:17:48.407Z,99653.59
2022-11-16T17:20:17.298Z,99658.06
2022-11-16T17:22:46.135Z,99652.88
2022-11-16T17:25:14.943Z,99658.97
2022-11-16T17:27:43.845Z,99656.28
2022-11-16T17:30:14.180Z,99654.44
2022-11-16T17:32:44.624Z,99654.44
2022-11-16T17:35:13.815Z,99651.00
2022-11-16T17:37:42.452Z,99640.53
2022-11-16T17:40:11.865Z,99650.13
2022-11-16T17:42:40.570Z,99660.63
2022-11-16T17:45:09.984Z,99658.13
2022-11-16T17:47:39.185Z,99655.44
2022-11-16T17:50:11.347Z,99654.50
2022-11-16T17:52:40.671Z,99657.19
2022-11-16T17:55:10.565Z,99662.38
2022-11-16T17:57:39.785Z,99658.94
2022-11-16T18:00:11.011Z,99665.94
2022-11-16T18:02:39.863Z,99659.75
2022-11-16T18:05:10.700Z,99658.91
2022-11-16T18:07:41.335Z,99653.66
2022-11-16T18:10:16.300Z,99654.53
2022-11-16T18:12:48.059Z,99660.66
2022-11-16T18:15:36.503Z,99658.06
2022-11-16T18:18:08.509Z,99659.75
2022-11-16T18:20:39.227Z,99654.50
2022-11-16T18:23:08.278Z,99651.91
2022-11-16T18:25:38.050Z,99660.59
2022-11-16T18:28:07.084Z,99657.88
2022-11-16T18:30:36.411Z,99664.97
2022-11-16T18:33:08.810Z,99658.81
2022-11-16T18:35:39.425Z,99664.00
2022-11-16T18:38:13.178Z,99656.13
2022-11-16T18:40:42.073Z,99653.69
2022-11-16T18:43:14.452Z,99644.97
2022-11-16T18:45:44.305Z,99651.03
2022-11-16T18:48:16.508Z,99641.59
2022-11-16T18:50:47.482Z,99648.50
2022-11-16T18:53:16.331Z,99648.38
2022-11-16T18:55:54.896Z,99645.81
2022-11-16T19:01:18.195Z,99646.78
2022-11-16T19:03:47.251Z,99657.25
2022-11-16T19:06:18.096Z,99656.47
2022-11-16T19:08:53.611Z,99657.47
2022-11-16T19:11:24.937Z,99667.94
2022-11-16T19:13:55.964Z,99660.00
2022-11-16T19:16:25.908Z,99659.94
2022-11-16T19:18:54.977Z,99654.69
2022-11-16T19:21:26.101Z,99649.38
2022-11-16T19:23:57.009Z,99649.47
2022-11-16T19:26:28.548Z,99640.72
2022-11-16T19:28:57.825Z,99640.78
2022-11-16T19:31:28.956Z,99642.47
2022-11-16T19:33:59.392Z,99643.34
2022-11-16T19:36:31.519Z,99647.75
2022-11-16T19:39:00.524Z,99643.34
2022-11-16T19:41:29.564Z,99647.84
2022-11-16T19:44:01.748Z,99647.84
2022-11-16T19:46:33.180Z,99642.59
2022-11-16T19:49:02.912Z,99647.78
2022-11-16T19:51:34.556Z,99645.16
2022-11-16T19:54:04.375Z,99640.88
2022-11-16T19:56:33.001Z,99650.44
2022-11-16T19:59:01.682Z,99653.94
2022-11-16T20:01:30.738Z,99654.72
2022-11-16T20:04:00.725Z,99655.63
2022-11-16T20:06:31.319Z,99656.44
2022-11-16T20:09:04.082Z,99661.63
2022-11-16T20:11:34.729Z,99661.72
2022-11-16T20:14:05.019Z,99658.22
2022-11-16T20:16:38.748Z,99667.81
2022-11-16T20:19:08.750Z,99662.47
2022-11-16T20:21:38.953Z,99661.59
2022-11-16T20:24:11.660Z,99655.59
2022-11-16T20:26:44.640Z,99660.00
2022-11-16T20:29:21.706Z,99660.88
2022-11-16T20:31:50.490Z,99673.09
2022-11-16T20:34:20.703Z,99662.59
2022-11-16T20:36:50.977Z,99676.56
2022-11-16T20:39:24.859Z,99666.97
2022-11-16T20:41:53.673Z,99669.50
2022-11-16T20:44:22.609Z,99672.03
2022-11-16T20:46:52.422Z,99674.72
2022-11-16T20:49:21.195Z,99674.72
2022-11-16T20:51:51.126Z,99673.84
2022-11-16T20:54:21.363Z,99667.75
2022-11-16T20:56:50.587Z,99670.47
2022-11-16T20:59:19.258Z,99667.09
2022-11-16T21:01:48.866Z,99668.75
2022-11-16T21:04:18.091Z,99669.72
2022-11-16T21:06:46.974Z,99660.88
2022-11-16T21:09:22.462Z,99660.00
2022-11-16T21:12:10.122Z,99665.34
2022-11-16T21:14:38.875Z,99665.38
2022-11-16T21:17:07.488Z,99667.94
2022-11-16T21:19:36.103Z,99658.31
2022-11-16T21:22:04.801Z,99660.25
2022-11-16T21:24:34.709Z,99668.09
2022-11-16T21:27:04.831Z,99662.16
2022-11-16T21:29:33.492Z,99669.16
2022-11-16T21:32:02.860Z,99659.72
2022-11-16T21:34:35.894Z,99663.22
2022-11-16T21:37:07.562Z,99660.59
2022-11-16T21:39:36.254Z,99662.38
2022-11-16T21:42:06.595Z,99666.69
2022-11-16T21:44:41.978Z,99667.47
2022-11-16T21:47:11.184Z,99669.28
2022-11-16T21:50:02.414Z,99670.25
2022-11-16T21:52:28.952Z,99672.06
2022-11-16T21:55:00.365Z,99673.00
2022-11-16T21:57:30.563Z,99674.72
2022-11-16T22:00:00.986Z,99673.84
2022-11-16T22:02:31.919Z,99669.50
2022-11-16T22:05:17.040Z,99665.09
2022-11-16T22:07:45.931Z,99674.72
2022-11-16T22:10:15.275Z,99669.56
2022-11-16T22:12:45.314Z,99677.44
2022-11-16T22:15:13.960Z,99673.13
2022-11-16T22:17:46.539Z,99683.59
2022-11-16T22:20:15.368Z,99672.31
2022-11-16T22:22:43.967Z,99669.69
2022-11-16T22:25:14.087Z,99668.75
2022-11-16T22:28:18.542Z,99665.31
2022-11-16T22:30:36.167Z,99667.94
2022-11-16T22:33:04.838Z,99664.44
2022-11-16T22:35:33.438Z,99668.06
2022-11-16T22:38:04.232Z,99672.44
2022-11-16T22:40:33.212Z,99667.94
2022-11-16T22:43:03.197Z,99672.53
2022-11-16T22:45:31.849Z,99675.06
2022-11-16T22:48:00.408Z,99669.84
2022-11-16T22:50:29.027Z,99674.16
2022-11-16T22:53:00.168Z,99670.56
2022-11-16T22:55:28.887Z,99665.41
2022-11-16T22:57:57.533Z,99663.69
2022-11-16T23:00:27.479Z,99662.75
2022-11-16T23:02:56.097Z,99655.75
2022-11-16T23:05:24.719Z,99655.69
2022-11-16T23:07:56.155Z,99655.75
2022-11-16T23:10:24.796Z,99655.84
2022-11-16T23:13:12.227Z,99659.38
2022-11-16T23:15:50.888Z,99659.34
2022-11-16T23:18:20.622Z,99642.94
2022-11-16T23:21:08.839Z,99650.78
2022-11-16T23:23:54.756Z,99647.28
2022-11-16T23:26:42.872Z,99651.69
2022-11-16T23:29:12.777Z,99650.88
2022-11-16T23:31:42.698Z,99656.06
2022-11-16T23:34:11.361Z,99653.47
2022-11-16T23:36:39.956Z,99651.75
2022-11-16T23:39:08.704Z,99649.09
2022-11-16T23:41:54.666Z,99656.16
2022-11-16T23:44:23.290Z,99651.81
2022-11-16T23:46:53.192Z,99649.16
2022-11-16T23:49:21.777Z,99663.16
2022-11-16T23:51:50.335Z,99652.69
2022-11-16T23:54:18.930Z,99660.44
2022-11-16T23:56:47.493Z,99664.00
2022-11-16T23:59:16.122Z,99659.00
